Home > Products > Valid Products > TAF

000
FTUS42 KFFC 031123
TAFMCN
TAF
KMCN 031123Z 0312/0412 24005KT P6SM SCT025 OVC035
     FM031500 27009KT P6SM BKN025
     FM031800 27010KT 5SM -TSRA BKN030CB
     FM032200 26010KT P6SM VCSH BKN050
     FM040000 28008KT P6SM BKN250
     FM040300 28008KT P6SM SCT250=



000
FTUS42 KFFC 031123
TAFFTY
TAF
KFTY 031123Z 0312/0412 26005KT P6SM VCSH BKN008 OVC080
     FM031400 27006KT P6SM OVC015
     FM031700 30010KT P6SM BKN050
     FM040200 31006KT P6SM SCT100=



000
FTUS42 KFFC 031123
TAFATL
TAF
KATL 031123Z 0312/0418 26007KT P6SM VCSH BKN005 BKN015
     FM031400 27010KT P6SM SCT007 OVC015
     FM031800 30012KT P6SM BKN050
     FM040300 30010KT P6SM SCT100
     FM041200 31012KT P6SM FEW250=



000
FTUS42 KFFC 031123
TAFAHN
TAF
KAHN 031123Z 0312/0412 24004KT P6SM SCT025 BKN060
     FM031300 27009KT P6SM VCSH BKN025
     FM031800 30010KT P6SM BKN050
     FM040200 30007KT P6SM SCT100=



000
FTUS42 KFFC 031123
TAFCSG
TAF
KCSG 031123Z 0312/0412 28007KT P6SM OVC015
     FM031500 29008KT P6SM BKN025
     FM031800 27010KT 5SM -TSRA BKN030CB
     FM032100 26010KT P6SM VCSH BKN050
     FM032300 25005KT P6SM BKN250
     FM040300 28008KT P6SM SCT250=



000
FTUS42 KFFC 031123
TAFPDK
TAF
KPDK 031123Z 0312/0412 26005KT P6SM VCSH SCT006 BKN012
     FM031400 27006KT P6SM OVC015
     FM031700 30010KT P6SM BKN050
     FM040000 30007KT P6SM SCT100=



000
FTUS42 KFFC 031123
TAFRYY
TAF
KRYY 031123Z 0312/0412 30005KT P6SM VCSH OVC005
     FM031400 27006KT P6SM OVC015
     FM031700 30010KT P6SM BKN050
     FM032100 30007KT P6SM SCT100=



000
FTUS42 KFFC 031123
TAFFTY
TAF
KFTY 031123Z 0312/0412 26005KT P6SM VCSH BKN008 OVC080
     FM031400 27006KT P6SM OVC015
     FM031700 30010KT P6SM BKN050
     FM040200 31006KT P6SM SCT100=



000
FTUS42 KFFC 031123
TAFMCN
TAF
KMCN 031123Z 0312/0412 24005KT P6SM SCT025 OVC035
     FM031500 27009KT P6SM BKN025
     FM031800 27010KT 5SM -TSRA BKN030CB
     FM032200 26010KT P6SM VCSH BKN050
     FM040000 28008KT P6SM BKN250
     FM040300 28008KT P6SM SCT250=



000
FTUS42 KFFC 031123
TAFRYY
TAF
KRYY 031123Z 0312/0412 30005KT P6SM VCSH OVC005
     FM031400 27006KT P6SM OVC015
     FM031700 30010KT P6SM BKN050
     FM032100 30007KT P6SM SCT100=



000
FTUS42 KFFC 031123
TAFATL
TAF
KATL 031123Z 0312/0418 26007KT P6SM VCSH BKN005 BKN015
     FM031400 27010KT P6SM SCT007 OVC015
     FM031800 30012KT P6SM BKN050
     FM040300 30010KT P6SM SCT100
     FM041200 31012KT P6SM FEW250=



000
FTUS42 KFFC 031123
TAFCSG
TAF
KCSG 031123Z 0312/0412 28007KT P6SM OVC015
     FM031500 29008KT P6SM BKN025
     FM031800 27010KT 5SM -TSRA BKN030CB
     FM032100 26010KT P6SM VCSH BKN050
     FM032300 25005KT P6SM BKN250
     FM040300 28008KT P6SM SCT250=



000
FTUS42 KFFC 031123
TAFAHN
TAF
KAHN 031123Z 0312/0412 24004KT P6SM SCT025 BKN060
     FM031300 27009KT P6SM VCSH BKN025
     FM031800 30010KT P6SM BKN050
     FM040200 30007KT P6SM SCT100=



000
FTUS42 KFFC 031123
TAFPDK
TAF
KPDK 031123Z 0312/0412 26005KT P6SM VCSH SCT006 BKN012
     FM031400 27006KT P6SM OVC015
     FM031700 30010KT P6SM BKN050
     FM040000 30007KT P6SM SCT100=



000
FTUS42 KFFC 031005 AAC
TAFMCN
TAF AMD
KMCN 031005Z 0310/0406 00000KT P6SM BKN025 BKN040
     FM031100 24005KT P6SM BKN019 OVC030
     FM031500 27009KT P6SM OVC020
     FM031800 27010KT 5SM -TSRA BKN030CB
     FM032200 26010KT P6SM VCSH BKN050
     FM040000 25005KT P6SM BKN250=



000
FTUS42 KFFC 031002 AAC
TAFAHN
TAF AMD
KAHN 031002Z 0310/0406 20003KT P6SM BKN030 BKN070
     FM031100 24004KT 6SM BR SCT015 BKN025
     FM031400 27009KT P6SM BKN025
     FM031900 30010KT P6SM BKN050
     FM040200 30007KT P6SM SCT100=



000
FTUS42 KFFC 031001 AAC
TAFFTY
TAF AMD
KFTY 031001Z 0310/0406 24005KT P6SM BKN009 BKN015
     FM031100 26005KT P6SM BKN007
     FM031400 27006KT P6SM OVC015
     FM031700 30010KT P6SM BKN050
     FM040200 30005KT P6SM SCT100=



000
FTUS42 KFFC 031000 AAC
TAFATL
TAF AMD
KATL 031000Z 0310/0412 26007KT P6SM BKN005 BKN015
     FM031400 27010KT P6SM SCT007 OVC015
     FM031800 30012KT P6SM BKN050
     FM040300 30008KT P6SM SCT100=



000
FTUS42 KFFC 030905 AAB
TAFAHN
TAF AMD
KAHN 030905Z 0309/0406 20003KT P6SM BKN030 BKN070
     FM031000 25003KT 6SM BR SCT009 BKN015
     FM031100 24004KT 6SM BR BKN008
     FM031400 27009KT P6SM OVC015
     FM031900 30010KT P6SM BKN050
     FM040200 30007KT P6SM SCT100=



000
FTUS42 KFFC 030905 AAB
TAFFTY
TAF AMD
KFTY 030905Z 0309/0406 22003KT P6SM SCT050 BKN100
     FM031000 26005KT 6SM BR SCT008 BKN015
     FM031100 26005KT 6SM BR BKN007
     FM031400 27006KT P6SM OVC015
     FM031700 30010KT P6SM BKN050
     FM040200 30005KT P6SM SCT100=



000
FTUS42 KFFC 030905 AAB
TAFATL
TAF AMD
KATL 030905Z 0309/0412 26007KT P6SM BKN007 BKN015
     FM031400 27010KT P6SM OVC015
     FM031800 30012KT P6SM BKN050
     FM040300 30008KT P6SM SCT100=



000
FTUS42 KFFC 030905 AAB
TAFPDK
TAF AMD
KPDK 030905Z 0309/0406 22003KT P6SM SCT050 BKN100
     FM031000 26005KT 6SM BR SCT008 BKN015
     FM031100 26005KT 6SM BR BKN007
     FM031400 27006KT P6SM OVC015
     FM031700 30010KT P6SM BKN050
     FM040000 30007KT P6SM SCT100=



000
FTUS42 KFFC 030905 AAB
TAFCSG
TAF AMD
KCSG 030905Z 0309/0406 26006KT P6SM FEW018 BKN025
     FM031000 27006KT P6SM SCT009 BKN015
     FM031100 27006KT P6SM BKN008
     FM031400 27009KT P6SM OVC015
     FM032100 26008KT P6SM VCSH BKN050
     FM032300 25005KT P6SM BKN250=



000
FTUS42 KFFC 030905 AAB
TAFMCN
TAF AMD
KMCN 030905Z 0309/0406 00000KT 6SM BR BKN030 BKN090
     FM031000 25004KT 5SM BR SCT009 BKN015
     FM031200 24005KT P6SM BKN009
     FM031500 27009KT P6SM OVC015 PROB30 0318/0322 -TSRA BKN030CB
     FM032200 26008KT P6SM VCSH BKN050
     FM040000 25005KT P6SM BKN250=



000
FTUS42 KFFC 030758 AAA
TAFFTY
TAF AMD
KFTY 030758Z 0308/0406 00000KT P6SM SCT025 BKN100
     FM030900 00000KT 5SM BR SCT009 BKN015
     FM031100 24004KT 6SM BR BKN008
     FM031400 27006KT P6SM OVC015
     FM031700 30010KT P6SM BKN050
     FM040200 30005KT P6SM SCT100=



000
FTUS42 KFFC 030758 AAA
TAFPDK
TAF AMD
KPDK 030758Z 0308/0406 00000KT P6SM SCT025 BKN100
     FM030900 00000KT 5SM BR SCT009 BKN015
     FM031100 24004KT 6SM BR BKN008
     FM031400 27006KT P6SM OVC015
     FM031700 30010KT P6SM BKN050
     FM040000 30007KT P6SM SCT100=



000
FTUS42 KFFC 030758 AAA
TAFCSG
TAF AMD
KCSG 030758Z 0308/0406 26003KT P6SM SCT025 OVC035
     FM030900 27003KT 5SM BR SCT009 BKN015
     FM031000 27004KT 6SM BR BKN008
     FM031400 27009KT P6SM OVC015 PROB30 0317/0321 -TSRA BKN030CB
     FM032100 26008KT P6SM VCSH BKN050
     FM032300 25005KT P6SM BKN250=



000
FTUS42 KFFC 030758 AAA
TAFATL
TAF AMD
KATL 030758Z 0308/0412 23008KT P6SM FEW015 BKN100
     FM030900 26004KT 5SM BR SCT009 BKN015
     FM031100 24005KT 6SM BR BKN008
     FM031400 27010KT P6SM OVC015
     FM031800 30012KT P6SM BKN050
     FM040300 30008KT P6SM SCT100=



000
FTUS42 KFFC 030758 AAA
TAFAHN
TAF AMD
KAHN 030758Z 0308/0406 20003KT P6SM VCSH SCT040 BKN070
     FM030900 25003KT 5SM BR SCT009 BKN015
     FM031100 24004KT 6SM BR BKN008
     FM031400 27009KT P6SM OVC015
     FM031900 30010KT P6SM BKN050
     FM040200 30007KT P6SM SCT100=



000
FTUS42 KFFC 030758 AAA
TAFMCN
TAF AMD
KMCN 030758Z 0308/0406 00000KT P6SM SCT030 BKN090
     FM030900 25004KT 5SM BR SCT009 BKN015
     FM031200 24005KT P6SM BKN009
     FM031500 27009KT P6SM OVC015 PROB30 0318/0322 -TSRA BKN030CB
     FM032200 26008KT P6SM VCSH BKN050
     FM040000 25005KT P6SM BKN250=



000
FTUS42 KFFC 030523
TAFATL
TAF
KATL 030523Z 0306/0412 23008KT P6SM SCT050 BKN090
     FM030800 26004KT 5SM BR SCT009 BKN015
     FM031000 24005KT 6SM BR BKN008
     FM031400 27010KT P6SM OVC015 PROB30 0316/0318 -SHRA OVC030
     FM031800 30012KT P6SM BKN050
     FM040300 30008KT P6SM SCT100=



000
FTUS42 KFFC 030523
TAFCSG
TAF
KCSG 030523Z 0306/0406 23003KT P6SM VCSH BKN090
     FM030800 25003KT 5SM BR SCT009 BKN015
     FM031000 24004KT 6SM BR BKN008
     FM031400 27009KT P6SM OVC015 PROB30 0317/0321 -TSRA BKN030CB
     FM032100 26008KT P6SM VCSH BKN050
     FM032300 25005KT P6SM BKN250=



000
FTUS42 KFFC 030523
TAFAHN
TAF
KAHN 030523Z 0306/0406 23006KT P6SM VCSH BKN040
     FM030800 25003KT 5SM BR SCT009 BKN015
     FM031000 24004KT 6SM BR BKN008
     FM031400 27009KT P6SM OVC015 PROB30 0316/0319 -SHRA OVC030
     FM031900 30010KT P6SM BKN050
     FM040200 30007KT P6SM SCT100=



000
FTUS42 KFFC 030523
TAFPDK
TAF
KPDK 030523Z 0306/0406 00000KT P6SM SCT050 BKN090
     FM030800 00000KT 5SM BR SCT009 BKN015
     FM031000 24004KT 6SM BR BKN006
     FM031400 27006KT P6SM OVC015 PROB30 0315/0317 -SHRA OVC030
     FM031700 30010KT P6SM BKN050
     FM040000 30007KT P6SM SCT100=



000
FTUS42 KFFC 030523
TAFFTY
TAF
KFTY 030523Z 0306/0406 00000KT P6SM SCT050 BKN090
     FM030800 00000KT 5SM BR SCT009 BKN015
     FM031000 24004KT 6SM BR BKN008
     FM031400 27006KT P6SM OVC015 PROB30 0315/0317 -SHRA OVC030
     FM031700 30010KT P6SM BKN050
     FM040200 30005KT P6SM SCT100=



000
FTUS42 KFFC 030523
TAFRYY
TAF
KRYY 030523Z 0306/0406 00000KT P6SM SCT050 BKN090
     FM030800 00000KT 5SM BR SCT009 BKN015
     FM031000 24004KT 6SM BR BKN006
     FM031400 27006KT P6SM OVC015 PROB30 0315/0317 -SHRA OVC030
     FM031700 30010KT P6SM BKN050
     FM040000 30007KT P6SM SCT100
      AMD NOT SKED TIL 031200=



000
FTUS42 KFFC 030523
TAFMCN
TAF
KMCN 030523Z 0306/0406 23004KT P6SM VCSH BKN040
     FM030800 25004KT 5SM BR SCT009 BKN015
     FM031200 24005KT P6SM BKN009
     FM031500 27009KT P6SM OVC015 PROB30 0318/0322 -TSRA BKN030CB
     FM032200 26008KT P6SM VCSH BKN050
     FM040000 25005KT P6SM BKN250=



000
FTUS42 KFFC 030523
TAFATL
TAF
KATL 030523Z 0306/0412 23008KT P6SM SCT050 BKN090
     FM030800 26004KT 5SM BR SCT009 BKN015
     FM031000 24005KT 6SM BR BKN008
     FM031400 27010KT P6SM OVC015 PROB30 0316/0318 -SHRA OVC030
     FM031800 30012KT P6SM BKN050
     FM040300 30008KT P6SM SCT100=



000
FTUS42 KFFC 030523
TAFPDK
TAF
KPDK 030523Z 0306/0406 00000KT P6SM SCT050 BKN090
     FM030800 00000KT 5SM BR SCT009 BKN015
     FM031000 24004KT 6SM BR BKN006
     FM031400 27006KT P6SM OVC015 PROB30 0315/0317 -SHRA OVC030
     FM031700 30010KT P6SM BKN050
     FM040000 30007KT P6SM SCT100=



000
FTUS42 KFFC 030523
TAFRYY
TAF
KRYY 030523Z 0306/0406 00000KT P6SM SCT050 BKN090
     FM030800 00000KT 5SM BR SCT009 BKN015
     FM031000 24004KT 6SM BR BKN006
     FM031400 27006KT P6SM OVC015 PROB30 0315/0317 -SHRA OVC030
     FM031700 30010KT P6SM BKN050
     FM040000 30007KT P6SM SCT100
      AMD NOT SKED TIL 031200=



000
FTUS42 KFFC 030523
TAFFTY
TAF
KFTY 030523Z 0306/0406 00000KT P6SM SCT050 BKN090
     FM030800 00000KT 5SM BR SCT009 BKN015
     FM031000 24004KT 6SM BR BKN008
     FM031400 27006KT P6SM OVC015 PROB30 0315/0317 -SHRA OVC030
     FM031700 30010KT P6SM BKN050
     FM040200 30005KT P6SM SCT100=



000
FTUS42 KFFC 030523
TAFCSG
TAF
KCSG 030523Z 0306/0406 23003KT P6SM VCSH BKN090
     FM030800 25003KT 5SM BR SCT009 BKN015
     FM031000 24004KT 6SM BR BKN008
     FM031400 27009KT P6SM OVC015 PROB30 0317/0321 -TSRA BKN030CB
     FM032100 26008KT P6SM VCSH BKN050
     FM032300 25005KT P6SM BKN250=



000
FTUS42 KFFC 030523
TAFAHN
TAF
KAHN 030523Z 0306/0406 23006KT P6SM VCSH BKN040
     FM030800 25003KT 5SM BR SCT009 BKN015
     FM031000 24004KT 6SM BR BKN008
     FM031400 27009KT P6SM OVC015 PROB30 0316/0319 -SHRA OVC030
     FM031900 30010KT P6SM BKN050
     FM040200 30007KT P6SM SCT100=



000
FTUS42 KFFC 030523
TAFMCN
TAF
KMCN 030523Z 0306/0406 23004KT P6SM VCSH BKN040
     FM030800 25004KT 5SM BR SCT009 BKN015
     FM031200 24005KT P6SM BKN009
     FM031500 27009KT P6SM OVC015 PROB30 0318/0322 -TSRA BKN030CB
     FM032200 26008KT P6SM VCSH BKN050
     FM040000 25005KT P6SM BKN250=



000
FTUS42 KFFC 030359 AAA
TAFAHN
TAF AMD
KAHN 030359Z 0304/0324 24010KT P6SM FEW045 BKN100
      TEMPO 0304/0306 VRB15G25KT 4SM TSRA BR BKN025CB
     FM030600 23006KT P6SM VCSH BKN040
     FM030800 25003KT 5SM BR SCT009 BKN015
     FM031000 24004KT 6SM BR BKN008
     FM031400 27009KT P6SM OVC015 PROB30 0316/0320 -SHRA OVC030=



000
FTUS42 KFFC 030359 AAA
TAFAHN
TAF AMD
KAHN 030359Z 0304/0324 24010KT P6SM FEW045 BKN100
      TEMPO 0304/0306 VRB15G25KT 4SM TSRA BR BKN025CB
     FM030600 23006KT P6SM VCSH BKN040
     FM030800 25003KT 5SM BR SCT009 BKN015
     FM031000 24004KT 6SM BR BKN008
     FM031400 27009KT P6SM OVC015 PROB30 0316/0320 -SHRA OVC030=



000
FTUS42 KFFC 030344 AAB
TAFATL
TAF AMD
KATL 030344Z 0304/0406 23008KT P6SM VCSH BKN040
     FM030700 25004KT 5SM BR SCT009 BKN015
     FM031000 24005KT 6SM BR BKN008
     FM031400 27010KT P6SM OVC015 PROB30 0316/0320 -SHRA OVC030
     FM032000 30012KT P6SM BKN050=



000
FTUS42 KFFC 030155 AAA
TAFATL
TAF AMD
KATL 030155Z 0302/0406 24010KT P6SM FEW045 BKN100
      TEMPO 0302/0304 VRB15G25KT 4SM TSRA BR BKN025CB
     FM030400 23008KT P6SM VCSH BKN040
     FM030600 25004KT 5SM BR SCT009 BKN015
     FM031000 24005KT 6SM BR BKN008
     FM031400 27010KT P6SM OVC015 PROB30 0316/0320 -SHRA OVC030
     FM032000 30012KT P6SM BKN050=



000
FTUS42 KFFC 030023 AAA
TAFCSG
TAF AMD
KCSG 030023Z 0300/0324 24006KT P6SM FEW045 BKN100
      TEMPO 0300/0304 VRB15G25KT 4SM TSRA BR BKN025CB
     FM030600 23006KT P6SM VCSH BKN040
     FM030800 25003KT 5SM BR SCT009 BKN015
     FM031000 24004KT 6SM BR BKN008
     FM031400 27009KT P6SM OVC015 PROB30 0317/0321 -TSRA OVC030CB=



000
FTUS42 KFFC 022332 CCA
TAFMCN
TAF COR
KMCN 022332Z 0300/0324 22012G20KT 4SM -TSRA BKN040CB
     FM030100 23008KT P6SM VCSH BKN040
      TEMPO 0304/0308 VRB15G25KT 4SM TSRA BR BKN025CB
     FM030800 25004KT 5SM BR SCT009 BKN015
     FM031200 24005KT P6SM BKN007
     FM031500 27009KT P6SM OVC015 PROB30 0318/0322 -TSRA BKN030CB=



000
FTUS42 KFFC 022332 CCA
TAFMCN
TAF COR
KMCN 022332Z 0300/0324 22012G20KT 4SM -TSRA BKN040CB
     FM030100 23008KT P6SM VCSH BKN040
      TEMPO 0304/0308 VRB15G25KT 4SM TSRA BR BKN025CB
     FM030800 25004KT 5SM BR SCT009 BKN015
     FM031200 24005KT P6SM BKN007
     FM031500 27009KT P6SM OVC015 PROB30 0318/0322 -TSRA BKN030CB=



000
FTUS42 KFFC 022331
TAFATL
TAF
KATL 022331Z 0300/0406 24010KT P6SM FEW045 BKN100
      TEMPO 0300/0304 VRB15G25KT 4SM TSRA BR BKN025CB
     FM030400 23008KT P6SM VCSH BKN040
     FM030600 25004KT 5SM BR SCT009 BKN015
     FM031000 24005KT 6SM BR BKN008
     FM031400 27010KT P6SM OVC015 PROB30 0316/0320 -SHRA OVC030
     FM032000 30012KT P6SM BKN050=



000
FTUS42 KFFC 022331
TAFPDK
TAF
KPDK 022331Z 0300/0324 24010KT P6SM FEW045 BKN100
      TEMPO 0300/0304 VRB15G25KT 4SM TSRA BR BKN025CB
     FM030400 23006KT P6SM VCSH BKN040
     FM030600 25003KT 5SM BR SCT009 BKN015
     FM031000 24004KT 6SM BR BKN008
     FM031400 27009KT P6SM OVC015 PROB30 0316/0320 -SHRA OVC030=



000
FTUS42 KFFC 022331
TAFRYY
TAF
KRYY 022331Z 0300/0324 24010KT P6SM FEW045 BKN100
      TEMPO 0300/0304 VRB15G25KT 4SM TSRA BR BKN025CB
     FM030400 23006KT P6SM VCSH BKN040
     FM030600 25003KT 5SM BR SCT009 BKN015
     FM031000 24004KT 6SM BR BKN008
     FM031400 27009KT P6SM OVC015 PROB30 0316/0320 -SHRA OVC030
      AMD NOT SKED 0304/0312=



000
FTUS42 KFFC 022331
TAFMCN
TAF
KMCN 022331Z 0300/0324 22009KT P6SM SCT050
     FM030300 23008KT P6SM VCSH BKN040
      TEMPO 0304/0308 VRB15G25KT 4SM TSRA BR BKN025CB
     FM030800 25004KT 5SM BR SCT009 BKN015
     FM031200 24005KT P6SM BKN007
     FM031500 27009KT P6SM OVC015 PROB30 0318/0322 -TSRA BKN030CB=



000
FTUS42 KFFC 022331
TAFFTY
TAF
KFTY 022331Z 0300/0324 24010KT P6SM FEW045 BKN100
      TEMPO 0300/0304 VRB15G25KT 4SM TSRA BR BKN025CB
     FM030400 23006KT P6SM VCSH BKN040
     FM030600 25003KT 5SM BR SCT009 BKN015
     FM031000 24004KT 6SM BR BKN008
     FM031400 27009KT P6SM OVC015 PROB30 0316/0320 -SHRA OVC030=



000
FTUS42 KFFC 022331
TAFAHN
TAF
KAHN 022331Z 0300/0324 24010KT P6SM FEW045 BKN100
      TEMPO 0300/0304 VRB15G25KT 4SM TSRA BR BKN025CB
     FM030400 23006KT P6SM VCSH BKN040
     FM030600 25003KT 5SM BR SCT009 BKN015
     FM031000 24004KT 6SM BR BKN008
     FM031400 27009KT P6SM OVC015 PROB30 0316/0320 -SHRA OVC030=



000
FTUS42 KFFC 022331
TAFCSG
TAF
KCSG 022331Z 0300/0324 24006KT P6SM FEW045 BKN100
      TEMPO 0302/0306 VRB15G25KT 4SM TSRA BR BKN025CB
     FM030600 23006KT P6SM VCSH BKN040
     FM030800 25003KT 5SM BR SCT009 BKN015
     FM031000 24004KT 6SM BR BKN008
     FM031400 27009KT P6SM OVC015 PROB30 0317/0321 -TSRA OVC030CB=



000
FTUS42 KFFC 022140 AAA
TAFAHN
TAF AMD
KAHN 022140Z 0222/0318 22006KT P6SM BKN045 BKN100
      TEMPO 0301/0305 VRB15G25KT 4SM TSRA BR BKN025CB
     FM030500 23006KT P6SM VCSH BKN040
     FM030600 25004KT 5SM BR SCT009 BKN015
     FM031200 24005KT P6SM BKN007 PROB30 0316/0318 -SHRA SCT007
      BKN015=



000
FTUS42 KFFC 022139 AAA
TAFPDK
TAF AMD
KPDK 022139Z 0222/0318 22010KT P6SM FEW045 BKN100
      TEMPO 0300/0303 VRB15G25KT 4SM TSRA BR BKN025CB
     FM030300 23006KT P6SM VCSH BKN040
     FM030600 25004KT 5SM BR SCT009 BKN015
     FM031200 24005KT P6SM BKN007 PROB30 0316/0318 -SHRA SCT007
      BKN015=



000
FTUS42 KFFC 022139 AAA
TAFFTY
TAF AMD
KFTY 022139Z 0222/0318 22010KT P6SM FEW045 BKN100
      TEMPO 0300/0303 VRB15G25KT 4SM TSRA BR BKN025CB
     FM030300 23006KT P6SM VCSH BKN040
     FM030600 25004KT 5SM BR SCT009 BKN015
     FM031200 24005KT P6SM BKN007 PROB30 0316/0318 -SHRA SCT007
      BKN015=



000
FTUS42 KFFC 022139 AAA
TAFRYY
TAF AMD
KRYY 022139Z 0222/0318 22010KT P6SM FEW045 BKN100
      TEMPO 0300/0303 VRB15G25KT 4SM TSRA BR BKN025CB
     FM030300 23006KT P6SM VCSH BKN040
     FM030600 25004KT 5SM BR SCT009 BKN015
     FM031200 24005KT P6SM BKN007 PROB30 0316/0318 -SHRA SCT007
      BKN015=



000
FTUS42 KFFC 022138 AAB
TAFATL
TAF AMD
KATL 022138Z 0222/0324 22010G20KT P6SM FEW045 BKN100
      TEMPO 0300/0303 VRB15G25KT 4SM TSRA BR BKN025CB
     FM030300 23008KT P6SM VCSH BKN040
     FM030600 25004KT 5SM BR SCT009 BKN015
     FM031200 24005KT P6SM BKN007 PROB30 0316/0320 -SHRA SCT007
      BKN015
     FM032100 30012KT P6SM BKN050=



000
FTUS42 KFFC 021952 AAA
TAFCSG
TAF AMD
KCSG 021952Z 0220/0318 26010KT P6SM SCT025 BKN035
      TEMPO 0220/0224 22010G20KT 4SM TSRA BR BKN025CB
     FM030000 22009KT 4SM -TSRA BR BKN025CB
     FM030300 23008KT P6SM VCSH BKN040
     FM030600 25004KT 5SM BR SCT009 BKN015
     FM031200 24005KT P6SM BKN007 PROB30 0316/0318 -SHRA SCT007
      BKN015=



000
FTUS42 KFFC 021951 AAA
TAFMCN
TAF AMD
KMCN 021951Z 0220/0318 20008G16KT P6SM SCT040
      TEMPO 0220/0224 22010G20KT 4SM TSRA BR BKN025CB
     FM030000 22009KT 4SM -TSRA BR BKN025CB
     FM030300 23008KT P6SM VCSH BKN040
     FM030600 25004KT 5SM BR SCT009 BKN015
     FM031200 24005KT P6SM BKN007 PROB30 0316/0318 -SHRA SCT007
      BKN015=



000
FTUS42 KFFC 021951 AAA
TAFMCN
TAF AMD
KMCN 021951Z 0220/0318 20008G16KT P6SM SCT040
      TEMPO 0220/0224 22010G20KT 4SM TSRA BR BKN025CB
     FM030000 22009KT 4SM -TSRA BR BKN025CB
     FM030300 23008KT P6SM VCSH BKN040
     FM030600 25004KT 5SM BR SCT009 BKN015
     FM031200 24005KT P6SM BKN007 PROB30 0316/0318 -SHRA SCT007
      BKN015=



000
FTUS42 KFFC 021947 AAA
TAFATL
TAF AMD
KATL 021947Z 0220/0324 22010G20KT P6SM FEW045 BKN100
      TEMPO 0221/0224 22012G25KT 4SM TSRA BR BKN025CB
     FM030000 22009KT 4SM -TSRA BR BKN025CB
     FM030300 23008KT P6SM VCSH BKN040
     FM030600 25004KT 5SM BR SCT009 BKN015
     FM031200 24005KT P6SM BKN007 PROB30 0316/0320 -SHRA SCT007
      BKN015
     FM032100 30012KT P6SM BKN050=



000
FTUS42 KFFC 021741
TAFFTY
TAF
KFTY 021741Z 0218/0318 22010KT P6SM FEW035 SCT045 SCT250
      TEMPO 0220/0223 22010G20KT 4SM TSRA BR BKN025CB
     FM030000 22009KT 4SM -TSRA BR BKN025CB
     FM030300 23008KT P6SM VCSH BKN040
     FM030600 25004KT 5SM BR SCT009 BKN015
     FM031200 24005KT P6SM BKN007 PROB30 0316/0318 -SHRA SCT007
      BKN015=



000
FTUS42 KFFC 021741
TAFMCN
TAF
KMCN 021741Z 0218/0318 22008G16KT P6SM BKN040
      TEMPO 0218/0222 22010G20KT 4SM TSRA BR BKN025CB
     FM022300 22009KT 4SM -TSRA BR BKN025CB
     FM030300 23008KT P6SM VCSH BKN040
     FM030600 25004KT 5SM BR SCT009 BKN015
     FM031200 24005KT P6SM BKN007 PROB30 0316/0318 -SHRA SCT007
      BKN015=



000
FTUS42 KFFC 021741
TAFATL
TAF
KATL 021741Z 0218/0324 22008G18KT P6SM FEW035 SCT045 SCT250
      TEMPO 0220/0223 22012G25KT 4SM TSRA BR BKN025CB
     FM030000 22009KT 4SM -TSRA BR BKN025CB
     FM030300 23008KT P6SM VCSH BKN040
     FM030600 25004KT 5SM BR SCT009 BKN015
     FM031200 24005KT P6SM BKN007 PROB30 0316/0320 -SHRA SCT007
      BKN015
     FM032100 30012KT P6SM BKN050=



000
FTUS42 KFFC 021741
TAFPDK
TAF
KPDK 021741Z 0218/0318 22008G18KT P6SM SCT040 SCT060 SCT250
      TEMPO 0220/0223 22012G25KT 4SM TSRA BR BKN025CB
     FM030000 22009KT 4SM -TSRA BR BKN025CB
     FM030300 23008KT P6SM VCSH BKN040
     FM030600 25004KT 5SM BR SCT009 BKN015
     FM031200 24005KT P6SM BKN007 PROB30 0316/0318 -SHRA SCT007
      BKN015=



000
FTUS42 KFFC 021741
TAFRYY
TAF
KRYY 021741Z 0218/0318 24008KT P6SM SCT040 SCT250
      TEMPO 0220/0223 22010G20KT 4SM TSRA BR BKN025CB
     FM030000 22009KT 4SM -TSRA BR BKN025CB
     FM030300 23008KT P6SM VCSH BKN040
     FM030600 25004KT 5SM BR SCT009 BKN015
     FM031200 24005KT P6SM BKN007 PROB30 0316/0318 -SHRA SCT007
      BKN015=



000
FTUS42 KFFC 021741
TAFCSG
TAF
KCSG 021741Z 0218/0318 26008KT P6SM SCT025 BKN035
      TEMPO 0218/0222 22010G20KT 4SM TSRA BR BKN025CB
     FM022300 22009KT 4SM -TSRA BR BKN025CB
     FM030300 23008KT P6SM VCSH BKN040
     FM030600 25004KT 5SM BR SCT009 BKN015
     FM031200 24005KT P6SM BKN007 PROB30 0316/0318 -SHRA SCT007
      BKN015=



000
FTUS42 KFFC 021741
TAFAHN
TAF
KAHN 021741Z 0218/0318 24008KT P6SM FEW050 SCT250
      TEMPO 0218/0222 22010G20KT 4SM TSRA BR BKN025CB
     FM022300 22009KT 4SM -TSRA BR BKN025CB
     FM030300 23008KT P6SM VCSH BKN040
     FM030600 25004KT 5SM BR SCT009 BKN015
     FM031200 24005KT P6SM BKN007 PROB30 0316/0318 -SHRA SCT007
      BKN015=



000
FTUS42 KFFC 021534 AAB
TAFATL
TAF AMD
KATL 021534Z 0216/0318 22008KT P6SM FEW020 SCT060 BKN150
     FM022000 22009KT 4SM -TSRA BR BKN025CB
     FM030300 23008KT P6SM VCSH BKN040
     FM030500 25004KT 5SM BR SCT009 BKN015
     FM031200 24005KT P6SM BKN007 PROB30 0315/0318 -SHRA SCT007
      BKN015=



000
FTUS42 KFFC 021533 AAA
TAFCSG
TAF AMD
KCSG 021533Z 0216/0312 22007KT P6SM BKN020
     FM021800 21009KT P6SM VCSH SCT040
     FM022000 23010KT 4SM -TSRA BR BKN025CB
     FM030300 23009KT P6SM VCSH BKN025
     FM030500 22003KT 4SM BR OVC015=



000
FTUS42 KFFC 021351 AAA
TAFATL
TAF AMD
KATL 021351Z 0214/0318 15004KT P6SM FEW100
     FM021600 22008KT P6SM SCT040 BKN150
     FM022000 22009KT 4SM -TSRA BR BKN025CB
     FM030300 23008KT P6SM VCSH BKN040
     FM030500 25004KT 5SM BR SCT009 BKN015
     FM031200 24005KT P6SM BKN007 PROB30 0315/0318 -SHRA SCT007
      BKN015=



000
FTUS42 KFFC 021122
TAFMCN
TAF
KMCN 021122Z 0212/0312 22003KT P6SM BKN110
     FM021500 22005KT P6SM SCT110
     FM021800 21008KT P6SM VCSH SCT040
     FM022000 23006KT 4SM -TSRA BR BKN025CB
     FM030300 23006KT P6SM VCSH BKN025
     FM030500 00000KT P6SM BKN025=



000
FTUS42 KFFC 021122
TAFATL
TAF
KATL 021122Z 0212/0318 22004KT P6SM SCT035 BKN110
     FM021500 22008KT P6SM SCT040 BKN150
     FM022000 22009KT 4SM -TSRA BR BKN025CB
     FM030300 23008KT P6SM VCSH BKN040
     FM030500 25004KT 5SM BR SCT009 BKN015
     FM031200 24005KT P6SM BKN007 PROB30 0315/0318 -SHRA SCT007
      BKN015=



000
FTUS42 KFFC 021122
TAFRYY
TAF
KRYY 021122Z 0212/0312 22003KT P6SM SCT035 BKN110
     FM021500 22005KT P6SM SCT040 BKN150
     FM022000 22008KT 4SM -TSRA BR BKN025CB
     FM030300 23006KT P6SM BKN040
     FM030500 00000KT 4SM BR SCT009 BKN015=



000
FTUS42 KFFC 021122
TAFCSG
TAF
KCSG 021122Z 0212/0312 22003KT P6SM FEW110
     FM021500 22005KT P6SM SCT110
     FM021800 21009KT P6SM VCSH SCT040
     FM022000 23010KT 4SM -TSRA BR BKN025CB
     FM030300 23009KT P6SM VCSH BKN025
     FM030500 22003KT 4SM BR OVC015=



000
FTUS42 KFFC 021122
TAFPDK
TAF
KPDK 021122Z 0212/0312 22003KT P6SM SCT035 BKN110
     FM021500 22005KT P6SM SCT040 BKN150
     FM022000 22008KT 4SM -TSRA BR BKN025CB
     FM030300 23006KT P6SM BKN040
     FM030500 00000KT 4SM BR SCT009 BKN015=



000
FTUS42 KFFC 021122
TAFFTY
TAF
KFTY 021122Z 0212/0312 22003KT P6SM SCT035 BKN110
     FM021500 22006KT P6SM SCT040 BKN150
     FM022000 22008KT 4SM -TSRA BR BKN025CB
     FM030300 23006KT P6SM VCSH BKN040
     FM030500 00000KT 4SM BR SCT009 BKN015=



000
FTUS42 KFFC 021122
TAFAHN
TAF
KAHN 021122Z 0212/0312 22003KT P6SM BKN110
     FM021500 22005KT P6SM SCT110
     FM021800 21008KT P6SM VCSH SCT040
     FM022000 23006KT 4SM -TSRA BR BKN025CB
     FM030300 23006KT P6SM VCSH BKN025
     FM030500 00000KT 5SM BR BKN015=



000
FTUS42 KFFC 021122
TAFATL
TAF
KATL 021122Z 0212/0318 22004KT P6SM SCT035 BKN110
     FM021500 22008KT P6SM SCT040 BKN150
     FM022000 22009KT 4SM -TSRA BR BKN025CB
     FM030300 23008KT P6SM VCSH BKN040
     FM030500 25004KT 5SM BR SCT009 BKN015
     FM031200 24005KT P6SM BKN007 PROB30 0315/0318 -SHRA SCT007
      BKN015=



000
FTUS42 KFFC 021122
TAFPDK
TAF
KPDK 021122Z 0212/0312 22003KT P6SM SCT035 BKN110
     FM021500 22005KT P6SM SCT040 BKN150
     FM022000 22008KT 4SM -TSRA BR BKN025CB
     FM030300 23006KT P6SM BKN040
     FM030500 00000KT 4SM BR SCT009 BKN015=



000
FTUS42 KFFC 021122
TAFCSG
TAF
KCSG 021122Z 0212/0312 22003KT P6SM FEW110
     FM021500 22005KT P6SM SCT110
     FM021800 21009KT P6SM VCSH SCT040
     FM022000 23010KT 4SM -TSRA BR BKN025CB
     FM030300 23009KT P6SM VCSH BKN025
     FM030500 22003KT 4SM BR OVC015=



000
FTUS42 KFFC 021122
TAFFTY
TAF
KFTY 021122Z 0212/0312 22003KT P6SM SCT035 BKN110
     FM021500 22006KT P6SM SCT040 BKN150
     FM022000 22008KT 4SM -TSRA BR BKN025CB
     FM030300 23006KT P6SM VCSH BKN040
     FM030500 00000KT 4SM BR SCT009 BKN015=



000
FTUS42 KFFC 021122
TAFMCN
TAF
KMCN 021122Z 0212/0312 22003KT P6SM BKN110
     FM021500 22005KT P6SM SCT110
     FM021800 21008KT P6SM VCSH SCT040
     FM022000 23006KT 4SM -TSRA BR BKN025CB
     FM030300 23006KT P6SM VCSH BKN025
     FM030500 00000KT P6SM BKN025=



000
FTUS42 KFFC 021122
TAFAHN
TAF
KAHN 021122Z 0212/0312 22003KT P6SM BKN110
     FM021500 22005KT P6SM SCT110
     FM021800 21008KT P6SM VCSH SCT040
     FM022000 23006KT 4SM -TSRA BR BKN025CB
     FM030300 23006KT P6SM VCSH BKN025
     FM030500 00000KT 5SM BR BKN015=



000
FTUS42 KFFC 021122
TAFRYY
TAF
KRYY 021122Z 0212/0312 22003KT P6SM SCT035 BKN110
     FM021500 22005KT P6SM SCT040 BKN150
     FM022000 22008KT 4SM -TSRA BR BKN025CB
     FM030300 23006KT P6SM BKN040
     FM030500 00000KT 4SM BR SCT009 BKN015=



000
FTUS42 KFFC 021009 AAA
TAFFTY
TAF AMD
KFTY 021009Z 0210/0306 25003KT P6SM BKN040 BKN110
     FM021500 22008KT P6SM SCT040 BKN150
     FM022000 22009KT 4SM -TSRA BR BKN025CB
     FM030300 23006KT P6SM BKN040
     FM030500 00000KT 4SM BR SCT009 BKN015=



000
FTUS42 KFFC 021009 AAA
TAFFTY
TAF AMD
KFTY 021009Z 0210/0306 25003KT P6SM BKN040 BKN110
     FM021500 22008KT P6SM SCT040 BKN150
     FM022000 22009KT 4SM -TSRA BR BKN025CB
     FM030300 23006KT P6SM BKN040
     FM030500 00000KT 4SM BR SCT009 BKN015=



000
FTUS42 KFFC 021009 AAB
TAFPDK
TAF AMD
KPDK 021009Z 0210/0306 25003KT P6SM BKN035 BKN110
     FM021500 22008KT P6SM SCT040 BKN150
     FM022000 22009KT 4SM -TSRA BR BKN025CB
     FM030300 23006KT P6SM BKN040
     FM030500 00000KT 4SM BR SCT009 BKN015=



000
FTUS42 KFFC 021009 AAB
TAFPDK
TAF AMD
KPDK 021009Z 0210/0306 25003KT P6SM BKN035 BKN110
     FM021500 22008KT P6SM SCT040 BKN150
     FM022000 22009KT 4SM -TSRA BR BKN025CB
     FM030300 23006KT P6SM BKN040
     FM030500 00000KT 4SM BR SCT009 BKN015=



000
FTUS42 KFFC 020959 AAB
TAFATL
TAF AMD
KATL 020959Z 0210/0312 25004KT P6SM BKN035 BKN110
     FM021500 22008KT P6SM SCT040 BKN150
     FM022000 22009KT 4SM -TSRA BR BKN025CB
     FM030300 23008KT P6SM VCSH BKN040
     FM030500 25004KT 5SM BR SCT009 BKN015=



000
FTUS42 KFFC 020754 AAA
TAFATL
TAF AMD
KATL 020754Z 0208/0312 16004KT P6SM BKN040 BKN150
     FM021000 20004KT 4SM BR SCT015 BKN040
     FM021500 22008KT P6SM SCT040 BKN150 PROB30 0221/0303 4SM TSRA
      BR BKN025CB
     FM030300 23008KT P6SM BKN040
     FM030600 25004KT 5SM BR SCT009 BKN015=



000
FTUS42 KFFC 020710 AAA
TAFPDK
TAF AMD
KPDK 020710Z 0207/0306 00000KT 5SM BR SCT060 BKN250
      TEMPO 0207/0210 2SM BR
     FM021000 00000KT 2SM BR SCT015 BKN250
     FM021500 22006KT P6SM SCT040 BKN150 PROB30 0221/0303 4SM TSRA
      BR BKN025CB
     FM030300 23006KT P6SM BKN040
     FM030500 00000KT 4SM BR SCT009 BKN015=



000
FTUS42 KFFC 020520
TAFAHN
TAF
KAHN 020520Z 0206/0306 24005KT 6SM BR SCT060 BKN250
     FM020900 00000KT 4SM BR SCT015 BKN250
     FM021200 22006KT P6SM BKN015
     FM021500 22008KT P6SM BKN030
     FM021800 21008KT P6SM VCSH SCT040 PROB30 0222/0303 4SM TSRA BR
      BKN025CB
     FM030300 23006KT P6SM BKN025
     FM030500 00000KT 4SM BR SCT009 BKN015=



000
FTUS42 KFFC 020520
TAFFTY
TAF
KFTY 020520Z 0206/0306 00000KT P6SM SCT060 BKN250
     FM021000 00000KT 4SM BR SCT015 BKN250
     FM021500 22006KT P6SM SCT040 BKN150 PROB30 0220/0302 4SM TSRA
      BR BKN025CB
     FM030300 23006KT P6SM BKN040
     FM030500 00000KT 4SM BR SCT009 BKN015=



000
FTUS42 KFFC 020520
TAFPDK
TAF
KPDK 020520Z 0206/0306 00000KT 5SM BR SCT060 BKN250
     FM021000 00000KT 4SM BR SCT015 BKN250
     FM021500 22006KT P6SM SCT040 BKN150 PROB30 0221/0303 4SM TSRA
      BR BKN025CB
     FM030300 23006KT P6SM BKN040
     FM030500 00000KT 4SM BR SCT009 BKN015=



000
FTUS42 KFFC 020520
TAFATL
TAF
KATL 020520Z 0206/0312 16004KT P6SM SCT060 BKN150
     FM021000 20004KT 4SM BR SCT015 BKN250
     FM021500 22008KT P6SM SCT040 BKN150 PROB30 0221/0303 4SM TSRA
      BR BKN025CB
     FM030300 23008KT P6SM BKN040
     FM030600 25004KT 5SM BR SCT009 BKN015=



000
FTUS42 KFFC 020520
TAFRYY
TAF
KRYY 020520Z 0206/0306 00000KT P6SM SCT060 BKN250
     FM021000 00000KT 4SM BR SCT015 BKN250
     FM021500 22006KT P6SM SCT040 BKN150 PROB30 0220/0302 4SM TSRA
      BR BKN025CB
     FM030300 23006KT P6SM BKN040
     FM030500 00000KT 4SM BR SCT009 BKN015
      AMD NOT SKED TIL 021200=



000
FTUS42 KFFC 020520
TAFCSG
TAF
KCSG 020520Z 0206/0306 00000KT P6SM SCT060 BKN250
     FM021100 22006KT P6SM SCT015 BKN250
     FM021500 22008KT P6SM BKN030 PROB30 0222/0303 4SM TSRA BR
      BKN025CB
     FM030300 25005KT P6SM BKN025=



000
FTUS42 KFFC 020520
TAFCSG
TAF
KCSG 020520Z 0206/0306 00000KT P6SM SCT060 BKN250
     FM021100 22006KT P6SM SCT015 BKN250
     FM021500 22008KT P6SM BKN030 PROB30 0222/0303 4SM TSRA BR
      BKN025CB
     FM030300 25005KT P6SM BKN025=



000
FTUS42 KFFC 020520
TAFRYY
TAF
KRYY 020520Z 0206/0306 00000KT P6SM SCT060 BKN250
     FM021000 00000KT 4SM BR SCT015 BKN250
     FM021500 22006KT P6SM SCT040 BKN150 PROB30 0220/0302 4SM TSRA
      BR BKN025CB
     FM030300 23006KT P6SM BKN040
     FM030500 00000KT 4SM BR SCT009 BKN015
      AMD NOT SKED TIL 021200=



000
FTUS42 KFFC 020520
TAFATL
TAF
KATL 020520Z 0206/0312 16004KT P6SM SCT060 BKN150
     FM021000 20004KT 4SM BR SCT015 BKN250
     FM021500 22008KT P6SM SCT040 BKN150 PROB30 0221/0303 4SM TSRA
      BR BKN025CB
     FM030300 23008KT P6SM BKN040
     FM030600 25004KT 5SM BR SCT009 BKN015=



000
FTUS42 KFFC 020520
TAFFTY
TAF
KFTY 020520Z 0206/0306 00000KT P6SM SCT060 BKN250
     FM021000 00000KT 4SM BR SCT015 BKN250
     FM021500 22006KT P6SM SCT040 BKN150 PROB30 0220/0302 4SM TSRA
      BR BKN025CB
     FM030300 23006KT P6SM BKN040
     FM030500 00000KT 4SM BR SCT009 BKN015=



000
FTUS42 KFFC 020520
TAFPDK
TAF
KPDK 020520Z 0206/0306 00000KT 5SM BR SCT060 BKN250
     FM021000 00000KT 4SM BR SCT015 BKN250
     FM021500 22006KT P6SM SCT040 BKN150 PROB30 0221/0303 4SM TSRA
      BR BKN025CB
     FM030300 23006KT P6SM BKN040
     FM030500 00000KT 4SM BR SCT009 BKN015=



000
FTUS42 KFFC 020520
TAFMCN
TAF
KMCN 020520Z 0206/0306 VRB04KT P6SM SCT250
     FM021400 22006KT P6SM SCT050 BKN150
     FM021600 22008KT P6SM SCT040 BKN150
     FM021800 21008KT P6SM VCSH SCT040 PROB30 0222/0303 4SM TSRA BR
      BKN025CB
     FM030300 23005KT P6SM BKN025=



000
FTUS42 KFFC 020520
TAFAHN
TAF
KAHN 020520Z 0206/0306 24005KT 6SM BR SCT060 BKN250
     FM020900 00000KT 4SM BR SCT015 BKN250
     FM021200 22006KT P6SM BKN015
     FM021500 22008KT P6SM BKN030
     FM021800 21008KT P6SM VCSH SCT040 PROB30 0222/0303 4SM TSRA BR
      BKN025CB
     FM030300 23006KT P6SM BKN025
     FM030500 00000KT 4SM BR SCT009 BKN015=



000
FTUS42 KFFC 020520
TAFMCN
TAF
KMCN 020520Z 0206/0306 VRB04KT P6SM SCT250
     FM021400 22006KT P6SM SCT050 BKN150
     FM021600 22008KT P6SM SCT040 BKN150
     FM021800 21008KT P6SM VCSH SCT040 PROB30 0222/0303 4SM TSRA BR
      BKN025CB
     FM030300 23005KT P6SM BKN025=



000
FTUS42 KFFC 020331 AAC
TAFATL
TAF AMD
KATL 020331Z 0204/0306 16004KT P6SM VCSH SCT040
     FM021000 14004KT 4SM BR SCT015 BKN250
     FM021500 22008KT P6SM SCT040 BKN150 PROB30 0221/0303 4SM TSRA
      BR BKN025CB
     FM030300 23008KT P6SM BKN040=



000
FTUS42 KFFC 020255 AAB
TAFATL
TAF AMD
KATL 020255Z 0203/0306 23008KT P6SM VCSH SCT040
     FM021000 14004KT 4SM BR SCT015 BKN250
     FM021500 22008KT P6SM SCT040 BKN150 PROB30 0221/0303 4SM TSRA
      BR BKN025CB
     FM030300 23008KT P6SM BKN040=



000
FTUS42 KFFC 020255 AAB
TAFATL
TAF AMD
KATL 020255Z 0203/0306 23008KT P6SM VCSH SCT040
     FM021000 14004KT 4SM BR SCT015 BKN250
     FM021500 22008KT P6SM SCT040 BKN150 PROB30 0221/0303 4SM TSRA
      BR BKN025CB
     FM030300 23008KT P6SM BKN040=



000
FTUS42 KFFC 020008 AAA
TAFATL
TAF AMD
KATL 020008Z 0200/0306 23008KT P6SM VCSH OVC040
      TEMPO 0200/0201 4SM -TSRA BKN030CB
     FM020400 19003KT P6SM SCT035 BKN250
     FM021000 14004KT 4SM BR SCT015 BKN250
     FM021500 22008KT P6SM SCT040 BKN150 PROB30 0221/0303 4SM TSRA
      BR BKN025CB
     FM030300 23008KT P6SM BKN040=



000
FTUS42 KFFC 020008 AAA
TAFATL
TAF AMD
KATL 020008Z 0200/0306 23008KT P6SM VCSH OVC040
      TEMPO 0200/0201 4SM -TSRA BKN030CB
     FM020400 19003KT P6SM SCT035 BKN250
     FM021000 14004KT 4SM BR SCT015 BKN250
     FM021500 22008KT P6SM SCT040 BKN150 PROB30 0221/0303 4SM TSRA
      BR BKN025CB
     FM030300 23008KT P6SM BKN040=



000
FTUS42 KFFC 012323
TAFFTY
TAF
KFTY 012323Z 0200/0224 23003KT P6SM VCSH OVC040
     FM020400 00000KT P6SM SCT035 BKN250
     FM021000 00000KT 4SM BR SCT015 BKN250
     FM021500 22006KT P6SM SCT040 BKN150 PROB30 0220/0224 4SM TSRA
      BR BKN025CB=



000
FTUS42 KFFC 012323
TAFCSG
TAF
KCSG 012323Z 0200/0224 23008KT P6SM VCSH OVC040
      TEMPO 0200/0202 4SM -TSRA BKN030CB
     FM020200 24005KT P6SM SCT060 BKN250
     FM021100 22006KT P6SM BKN015
     FM021500 22008KT P6SM BKN030 PROB30 0222/0224 4SM TSRA BR
      BKN025CB=



000
FTUS42 KFFC 012323
TAFAHN
TAF
KAHN 012323Z 0200/0224 23008KT P6SM VCSH OVC040
     FM020200 24005KT P6SM SCT060 BKN250
     FM021200 22006KT P6SM BKN015
     FM021500 22008KT P6SM BKN030
     FM021800 21008KT P6SM VCSH SCT040 PROB30 0222/0224 4SM TSRA BR
      BKN025CB=



000
FTUS42 KFFC 012323
TAFPDK
TAF
KPDK 012323Z 0200/0224 23003KT P6SM VCSH OVC040
     FM020400 00000KT P6SM SCT035 BKN250
     FM021000 00000KT 4SM BR SCT015 BKN250
     FM021500 22006KT P6SM SCT040 BKN150 PROB30 0220/0224 4SM TSRA
      BR BKN025CB=



000
FTUS42 KFFC 012323
TAFMCN
TAF
KMCN 012323Z 0200/0224 23008KT P6SM VCSH OVC040
     FM020200 24005KT P6SM BKN050 BKN250
     FM021400 22006KT P6SM SCT050 BKN150
     FM021600 22008KT P6SM SCT040 BKN150
     FM021800 21008KT P6SM VCSH SCT040=



000
FTUS42 KFFC 012323
TAFRYY
TAF
KRYY 012323Z 0200/0224 23003KT P6SM VCSH OVC040
     FM020400 00000KT P6SM SCT035 BKN250
     FM021000 00000KT 4SM BR SCT015 BKN250
     FM021500 22006KT P6SM SCT040 BKN150 PROB30 0220/0224 4SM TSRA
      BR BKN025CB
      AMD NOT SKED 0204/0212=



000
FTUS42 KFFC 012323
TAFATL
TAF
KATL 012323Z 0200/0306 23008KT P6SM VCSH OVC040
     FM020400 19003KT P6SM SCT035 BKN250
     FM021000 14004KT 4SM BR SCT015 BKN250
     FM021500 22008KT P6SM SCT040 BKN150 PROB30 0221/0303 4SM TSRA
      BR BKN025CB
     FM030300 23008KT P6SM BKN040=



000
FTUS42 KFFC 012143 AAB
TAFATL
TAF AMD
KATL 012143Z 0122/0224 21009KT P6SM VCSH SCT030 BKN050
      TEMPO 0122/0123 VRB10G20KT 4SM TSRA BR BKN025CB
     FM012300 23008KT P6SM VCSH OVC040
     FM020200 24005KT P6SM SCT060 BKN250
     FM021200 22006KT P6SM SCT030 BKN150
     FM021500 22008KT P6SM SCT040 BKN150 PROB30 0219/0223 4SM TSRA
      BR BKN025CB=



000
FTUS42 KFFC 011938 AAA
TAFATL
TAF AMD
KATL 011938Z 0120/0224 21009KT P6SM VCSH SCT030 BKN050
      TEMPO 0120/0123 VRB10G20KT 4SM TSRA BR BKN025CB
     FM012300 23008KT P6SM VCSH OVC040
     FM020200 24005KT P6SM SCT060 BKN250
     FM021200 22006KT P6SM SCT030 BKN150
     FM021500 22008KT P6SM SCT040 BKN150 PROB30 0219/0223 4SM TSRA
      BR BKN025CB=



000
FTUS42 KFFC 011740
TAFPDK
TAF
KPDK 011740Z 0118/0218 24010KT P6SM VCSH FEW030 BKN070
      TEMPO 0119/0122 4SM TSRA BR BKN025CB
     FM012300 23008KT P6SM VCSH OVC040
     FM020200 24005KT P6SM SCT060 BKN250
     FM021200 22006KT P6SM SCT030 BKN150
     FM021500 22008KT P6SM SCT040 BKN150=



000
FTUS42 KFFC 011740
TAFCSG
TAF
KCSG 011740Z 0118/0218 20009KT P6SM VCSH SCT035 BKN080
      TEMPO 0120/0123 4SM TSRA BR BKN025CB
     FM020000 23008KT P6SM VCSH OVC040
     FM020200 24005KT P6SM SCT060 BKN250
     FM021200 22006KT P6SM SCT030 BKN150
     FM021500 22008KT P6SM SCT040 BKN150=



000
FTUS42 KFFC 011740
TAFMCN
TAF
KMCN 011740Z 0118/0218 23009KT P6SM VCSH SCT035 BKN080
      TEMPO 0120/0123 4SM TSRA BR BKN025CB
     FM020000 23008KT P6SM VCSH OVC040
     FM020200 24005KT P6SM SCT060 BKN250
     FM021200 22006KT P6SM SCT030 BKN150
     FM021500 22008KT P6SM SCT040 BKN150=



000
FTUS42 KFFC 011740
TAFAHN
TAF
KAHN 011740Z 0118/0218 23007KT P6SM VCSH SCT035 BKN080
      TEMPO 0120/0123 4SM TSRA BR BKN025CB
     FM020000 23008KT P6SM VCSH OVC040
     FM020200 24005KT P6SM SCT060 BKN250
     FM021200 22006KT P6SM SCT030 BKN150
     FM021500 22008KT P6SM SCT040 BKN150=



000
FTUS42 KFFC 011740
TAFATL
TAF
KATL 011740Z 0118/0224 22010KT P6SM VCSH SCT025 BKN060
      TEMPO 0119/0122 4SM TSRA BR BKN025CB
     FM012300 23008KT P6SM VCSH OVC040
     FM020200 24005KT P6SM SCT060 BKN250
     FM021200 22006KT P6SM SCT030 BKN150
     FM021500 22008KT P6SM SCT040 BKN150 PROB30 0219/0223 4SM TSRA
      BR BKN025CB=



000
FTUS42 KFFC 011740
TAFRYY
TAF
KRYY 011740Z 0118/0218 22010KT P6SM VCSH SCT030 BKN060
      TEMPO 0119/0122 4SM TSRA BR BKN025CB
     FM012300 23008KT P6SM VCSH OVC040
     FM020200 24005KT P6SM SCT060 BKN250
     FM021200 22006KT P6SM SCT030 BKN150
     FM021500 22008KT P6SM SCT040 BKN150=



000
FTUS42 KFFC 011740
TAFFTY
TAF
KFTY 011740Z 0118/0218 22010KT P6SM -SHRA SCT030 BKN060
      TEMPO 0119/0122 4SM TSRA BR BKN025CB
     FM012300 23008KT P6SM VCSH OVC040
     FM020200 24005KT P6SM SCT060 BKN250
     FM021200 22006KT P6SM SCT030 BKN150
     FM021500 22008KT P6SM SCT040 BKN150=



000
FTUS42 KFFC 011740
TAFFTY
TAF
KFTY 011740Z 0118/0218 22010KT P6SM -SHRA SCT030 BKN060
      TEMPO 0119/0122 4SM TSRA BR BKN025CB
     FM012300 23008KT P6SM VCSH OVC040
     FM020200 24005KT P6SM SCT060 BKN250
     FM021200 22006KT P6SM SCT030 BKN150
     FM021500 22008KT P6SM SCT040 BKN150=



000
FTUS42 KFFC 011539 AAA
TAFAHN
TAF AMD
KAHN 011539Z 0116/0212 25006KT P6SM BKN020 BKN040
     FM011800 23010KT 4SM -TSRA BKN025CB
     FM012000 23009KT 4SM -TSRA BKN030CB
     FM012300 23006KT P6SM VCSH OVC040
     FM020200 00000KT P6SM SCT060 BKN250=



000
FTUS42 KFFC 011536 AAC
TAFATL
TAF AMD
KATL 011536Z 0116/0218 23007KT P6SM VCSH BKN020 BKN060
     FM011800 23010KT 4SM -TSRA BKN025CB
     FM012100 23008KT P6SM VCSH OVC040
     FM020200 24005KT P6SM SCT060 BKN250
     FM021200 22006KT P6SM SCT030 BKN160=



000
FTUS42 KFFC 011536 AAC
TAFATL
TAF AMD
KATL 011536Z 0116/0218 23007KT P6SM VCSH BKN020 BKN060
     FM011800 23010KT 4SM -TSRA BKN025CB
     FM012100 23008KT P6SM VCSH OVC040
     FM020200 24005KT P6SM SCT060 BKN250
     FM021200 22006KT P6SM SCT030 BKN160=



000
FTUS42 KFFC 011440 AAB
TAFPDK
TAF AMD
KPDK 011440Z 0115/0212 VRB03KT P6SM SCT015 BKN020
     FM011600 23007KT P6SM VCSH BKN025
     FM011700 23009KT 4SM -TSRA BKN030CB
     FM012000 23006KT P6SM VCSH OVC040
     FM020200 22003KT P6SM SCT060 BKN250=



000
FTUS42 KFFC 011407 AAB
TAFATL
TAF AMD
KATL 011407Z 0114/0218 19006KT P6SM FEW020 FEW100
     FM011600 23009KT P6SM VCSH BKN035
     FM011800 23010KT 4SM -TSRA BKN035CB
     FM012100 23008KT P6SM VCSH OVC040
     FM020200 24005KT P6SM SCT060 BKN250
     FM021200 22006KT P6SM SCT030 BKN160=



000
FTUS42 KFFC 011322 AAA
TAFPDK
TAF AMD
KPDK 011322Z 0113/0212 VRB03KT P6SM BKN005
     FM011400 21004KT P6SM FEW005
     FM011600 23007KT P6SM VCSH BKN025
     FM011700 23009KT 4SM -TSRA BKN030CB
     FM012000 23006KT P6SM VCSH OVC040
     FM020200 22003KT P6SM SCT060 BKN250=



000
FTUS42 KFFC 011322 AAA
TAFPDK
TAF AMD
KPDK 011322Z 0113/0212 VRB03KT P6SM BKN005
     FM011400 21004KT P6SM FEW005
     FM011600 23007KT P6SM VCSH BKN025
     FM011700 23009KT 4SM -TSRA BKN030CB
     FM012000 23006KT P6SM VCSH OVC040
     FM020200 22003KT P6SM SCT060 BKN250=



000
FTUS42 KFFC 011319 AAA
TAFRYY
TAF AMD
KRYY 011319Z 0113/0212 00000KT 5SM BR BKN004
     FM011400 21004KT P6SM FEW006
     FM011600 23007KT P6SM VCSH BKN025
     FM011700 23009KT 4SM -TSRA BKN030CB
     FM012000 23006KT P6SM VCSH OVC040
     FM020200 25003KT P6SM SCT060 BKN250=



000
FTUS42 KFFC 011319 AAA
TAFRYY
TAF AMD
KRYY 011319Z 0113/0212 00000KT 5SM BR BKN004
     FM011400 21004KT P6SM FEW006
     FM011600 23007KT P6SM VCSH BKN025
     FM011700 23009KT 4SM -TSRA BKN030CB
     FM012000 23006KT P6SM VCSH OVC040
     FM020200 25003KT P6SM SCT060 BKN250=



000
FTUS42 KFFC 011258 AAA
TAFATL
TAF AMD
KATL 011258Z 0113/0218 21006KT 4SM BR FEW005 FEW100
     FM011600 23009KT P6SM VCSH BKN035
     FM011800 23010KT 4SM -TSRA BKN035CB
     FM012100 23008KT P6SM VCSH OVC040
     FM020200 24005KT P6SM SCT060 BKN250
     FM021200 22006KT P6SM SCT030 BKN160=



000
FTUS42 KFFC 011258 AAA
TAFATL
TAF AMD
KATL 011258Z 0113/0218 21006KT 4SM BR FEW005 FEW100
     FM011600 23009KT P6SM VCSH BKN035
     FM011800 23010KT 4SM -TSRA BKN035CB
     FM012100 23008KT P6SM VCSH OVC040
     FM020200 24005KT P6SM SCT060 BKN250
     FM021200 22006KT P6SM SCT030 BKN160=



000
FTUS42 KFFC 011242 AAA
TAFFTY
TAF AMD
KFTY 011242Z 0113/0212 00000KT 5SM BR SCT006
     FM011400 24007KT P6SM SCT020
     FM011600 23008KT P6SM VCSH BKN035
     FM011700 23009KT 4SM -TSRA BKN035CB
     FM012000 23005KT P6SM VCSH OVC040
     FM020200 22003KT P6SM SCT060 BKN250=



000
FTUS42 KFFC 011136
TAFMCN
TAF
KMCN 011136Z 0112/0212 18004KT 5SM BR FEW008
     FM011500 21006KT P6SM SCT015
     FM011600 22008KT P6SM VCSH BKN025
     FM012200 23009KT 4SM -TSRA BKN030CB
     FM012300 23006KT P6SM VCSH OVC040
     FM020200 VRB03KT P6SM SCT060 BKN250=



000
FTUS42 KFFC 011136
TAFFTY
TAF
KFTY 011136Z 0112/0212 00000KT 2SM BR OVC003
      TEMPO 0112/0113 1/4SM FG
     FM011300 24007KT P6SM BKN020
     FM011600 23008KT P6SM VCSH BKN035
     FM011700 23009KT 4SM -TSRA BKN035CB
     FM012000 23005KT P6SM VCSH OVC040
     FM020200 22003KT P6SM SCT060 BKN250=



000
FTUS42 KFFC 011136
TAFAHN
TAF
KAHN 011136Z 0112/0212 14004KT 2SM BR BKN003
     FM011400 21006KT P6SM BKN008
     FM011600 23007KT P6SM VCSH BKN025
     FM012000 23009KT 4SM -TSRA BKN030CB
     FM012300 23006KT P6SM VCSH OVC040
     FM020200 00000KT P6SM SCT060 BKN250=



000
FTUS42 KFFC 011136
TAFATL
TAF
KATL 011136Z 0112/0218 21006KT 4SM BR FEW004 FEW045
      TEMPO 0112/0113 BKN005
     FM011300 24007KT P6SM BKN020
     FM011600 23009KT P6SM VCSH BKN035
     FM011800 23010KT 4SM -TSRA BKN035CB
     FM012100 23008KT P6SM VCSH OVC040
     FM020200 24005KT P6SM SCT060 BKN250
     FM021200 22006KT P6SM SCT030 BKN160=



000
FTUS42 KFFC 011136
TAFPDK
TAF
KPDK 011136Z 0112/0212 17003KT 3SM BR OVC003
      TEMPO 0112/0113 1 1/2SM BR
     FM011300 21004KT P6SM BKN020
     FM011600 23007KT P6SM VCSH BKN025
     FM011700 23009KT 4SM -TSRA BKN030CB
     FM012000 23006KT P6SM VCSH OVC040
     FM020200 22003KT P6SM SCT060 BKN250=



000
FTUS42 KFFC 011136
TAFRYY
TAF
KRYY 011136Z 0112/0212 21004KT 2SM BR BKN005
     FM011300 21004KT P6SM SCT090
     FM011600 23007KT P6SM VCSH BKN025
     FM011700 23009KT 4SM -TSRA BKN030CB
     FM012000 23006KT P6SM VCSH OVC040
     FM020200 25003KT P6SM SCT060 BKN250=



000
FTUS42 KFFC 011136
TAFCSG
TAF
KCSG 011136Z 0112/0212 18004KT P6SM FEW090
     FM011600 22008KT P6SM SCT035
     FM011800 23006KT P6SM VCSH BKN035
     FM012000 23009KT 4SM -TSRA BKN030CB
     FM020200 VRB03KT P6SM SCT060 BKN250=



000
FTUS42 KFFC 011047 AAB
TAFPDK
TAF AMD
KPDK 011047Z 0111/0206 17003KT 3SM BR BKN004 BKN090
     FM011300 21004KT P6SM BKN015
     FM011600 23007KT P6SM VCSH BKN025
     FM011700 23009KT 4SM -TSRA BKN030CB
     FM012000 23006KT P6SM VCSH OVC040=



000
FTUS42 KFFC 011005 AAA
TAFCSG
TAF AMD
KCSG 011005Z 0110/0206 00000KT P6SM SCT110
     FM011200 18004KT P6SM BKN015
     FM011400 21006KT P6SM OVC025
     FM011600 22008KT P6SM VCSH BKN035
     FM012000 23009KT 4SM -TSRA BKN030CB=



000
FTUS42 KFFC 011005 AAA
TAFCSG
TAF AMD
KCSG 011005Z 0110/0206 00000KT P6SM SCT110
     FM011200 18004KT P6SM BKN015
     FM011400 21006KT P6SM OVC025
     FM011600 22008KT P6SM VCSH BKN035
     FM012000 23009KT 4SM -TSRA BKN030CB=



000
FTUS42 KFFC 010958 AAD
TAFATL
TAF AMD
KATL 010958Z 0110/0212 14006KT 4SM BR FEW005 SCT110 BKN250
     FM011200 21006KT P6SM BKN015
     FM011600 23009KT P6SM VCSH BKN025
     FM011800 23010KT 4SM -TSRA BKN030CB
     FM012100 23008KT P6SM VCSH OVC040
     FM020200 24005KT P6SM SCT060 BKN250=



000
FTUS42 KFFC 010949 AAD
TAFFTY
TAF AMD
KFTY 010949Z 0110/0206 00000KT 2SM BR BKN005
      TEMPO 0110/0112 1/2SM FG
     FM011400 21004KT P6SM BKN015
     FM011600 23007KT P6SM VCSH BKN025
     FM011700 23009KT 4SM -TSRA BKN030CB
     FM012000 23006KT P6SM VCSH OVC040=



000
FTUS42 KFFC 010915 AAC
TAFFTY
TAF AMD
KFTY 010915Z 0109/0206 17003KT 3SM BR BKN008
     FM011400 21004KT P6SM BKN015
     FM011600 23007KT P6SM VCSH BKN025
     FM011700 23009KT 4SM -TSRA BKN030CB
     FM012000 23006KT P6SM VCSH OVC040=



000
FTUS42 KFFC 010915 AAC
TAFATL
TAF AMD
KATL 010915Z 0109/0212 14006KT 5SM BR FEW005 BKN040 BKN100
     FM011200 21006KT P6SM BKN015
     FM011600 23009KT P6SM VCSH BKN025
     FM011800 23010KT 4SM -TSRA BKN030CB
     FM012100 23008KT P6SM VCSH OVC040
     FM020200 24005KT P6SM SCT060 BKN250=



000
FTUS42 KFFC 010915 AAA
TAFMCN
TAF AMD
KMCN 010915Z 0109/0206 16004KT P6SM SCT080
     FM011200 18004KT 4SM BR OVC015
     FM011500 21006KT P6SM SCT015
     FM011600 22008KT P6SM VCSH BKN025
     FM012200 23009KT 4SM -TSRA BKN030CB=



000
FTUS42 KFFC 010915 AAB
TAFAHN
TAF AMD
KAHN 010915Z 0109/0206 13005KT 4SM BR BKN007 OVC015
     FM011200 14004KT P6SM BKN009
     FM011400 21006KT P6SM VCSH BKN012
     FM012000 23009KT 4SM -TSRA BKN030CB=



000
FTUS42 KFFC 010800 AAB
TAFFTY
TAF AMD
KFTY 010800Z 0108/0206 17003KT 5SM BR SCT040 BKN080
     FM011200 21004KT P6SM BKN015
     FM011600 23007KT P6SM VCSH BKN025
     FM011700 23009KT 4SM -TSRA BKN030CB
     FM012000 23006KT P6SM VCSH OVC040=



000
FTUS42 KFFC 010756 AAB
TAFATL
TAF AMD
KATL 010756Z 0108/0212 14006KT P6SM BKN040 BKN100
     FM011200 21006KT P6SM BKN015
     FM011600 23009KT P6SM VCSH BKN025
     FM011800 23010KT 4SM -TSRA BKN030CB
     FM012100 23008KT P6SM VCSH OVC040
     FM020200 24005KT P6SM SCT060 BKN250=



000
FTUS42 KFFC 010716 AAA
TAFAHN
TAF AMD
KAHN 010716Z 0107/0206 VRB03KT P6SM FEW015 BKN020
      TEMPO 0108/0109 VRB10G15KT 3SM -TSRA BKN035CB
     FM010900 13005KT P6SM OVC015
     FM011200 14004KT P6SM BKN009
     FM011400 21006KT P6SM VCSH BKN012
     FM012000 23009KT 4SM -TSRA BKN030CB=



000
FTUS42 KFFC 010602 AAA
TAFRYY
TAF AMD
KRYY 010602Z 0106/0206 17003KT P6SM VCSH BKN040 BKN080
      TEMPO 0106/0107 VRB10G15KT -TSRA BKN040CB
     FM011200 21004KT P6SM BKN015
     FM011600 23007KT P6SM VCSH BKN025
     FM011700 23009KT 4SM -TSRA BKN030CB
     FM012000 23006KT P6SM VCSH OVC040
      AMD NOT SKED TIL 011200=



000
FTUS42 KFFC 010602 AAA
TAFRYY
TAF AMD
KRYY 010602Z 0106/0206 17003KT P6SM VCSH BKN040 BKN080
      TEMPO 0106/0107 VRB10G15KT -TSRA BKN040CB
     FM011200 21004KT P6SM BKN015
     FM011600 23007KT P6SM VCSH BKN025
     FM011700 23009KT 4SM -TSRA BKN030CB
     FM012000 23006KT P6SM VCSH OVC040
      AMD NOT SKED TIL 011200=



000
FTUS42 KFFC 010602 AAA
TAFPDK
TAF AMD
KPDK 010602Z 0106/0206 17003KT P6SM VCSH BKN040 BKN080
      TEMPO 0106/0107 VRB10G15KT -TSRA BKN040CB
     FM011200 21004KT P6SM BKN015
     FM011600 23007KT P6SM VCSH BKN025
     FM011700 23009KT 4SM -TSRA BKN030CB
     FM012000 23006KT P6SM VCSH OVC040=



000
FTUS42 KFFC 010601 AAA
TAFFTY
TAF AMD
KFTY 010601Z 0106/0206 17003KT P6SM VCSH BKN040 BKN080
      TEMPO 0106/0107 VRB10G15KT -TSRA BKN040CB
     FM011200 21004KT P6SM BKN015
     FM011600 23007KT P6SM VCSH BKN025
     FM011700 23009KT 4SM -TSRA BKN030CB
     FM012000 23006KT P6SM VCSH OVC040=



000
FTUS42 KFFC 010550 AAA
TAFATL
TAF AMD
KATL 010550Z 0106/0212 14006KT P6SM VCTS BKN040CB BKN080
     FM010700 14006KT P6SM VCSH BKN040 BKN080
     FM011200 21006KT P6SM BKN015
     FM011600 23009KT P6SM VCSH BKN025
     FM011800 23010KT 4SM -TSRA BKN030CB
     FM012100 23008KT P6SM VCSH OVC040
     FM020200 24005KT P6SM SCT060 BKN250=



000
FTUS42 KFFC 010535
TAFFTY
TAF
KFTY 010535Z 0106/0206 17003KT P6SM VCSH BKN040 BKN080
     FM011200 21004KT P6SM BKN015
     FM011600 23007KT P6SM VCSH BKN025
     FM011700 23009KT 4SM -TSRA BKN030CB
     FM012000 23006KT P6SM VCSH OVC040=



000
FTUS42 KFFC 010535
TAFRYY
TAF
KRYY 010535Z 0106/0206 17003KT P6SM VCSH BKN040 BKN080
     FM011200 21004KT P6SM BKN015
     FM011600 23007KT P6SM VCSH BKN025
     FM011700 23009KT 4SM -TSRA BKN030CB
     FM012000 23006KT P6SM VCSH OVC040
      AMD NOT SKED TIL 011200=



000
FTUS42 KFFC 010535
TAFAHN
TAF
KAHN 010535Z 0106/0206 VRB03KT P6SM FEW015
     FM010900 13005KT P6SM OVC015
     FM011200 14004KT P6SM BKN009
     FM011400 21006KT P6SM VCSH BKN012
     FM012000 23009KT 4SM -TSRA BKN030CB=



000
FTUS42 KFFC 010535
TAFPDK
TAF
KPDK 010535Z 0106/0206 17003KT P6SM VCSH BKN040 BKN080
     FM011200 21004KT P6SM BKN015
     FM011600 23007KT P6SM VCSH BKN025
     FM011700 23009KT 4SM -TSRA BKN030CB
     FM012000 23006KT P6SM VCSH OVC040=



000
FTUS42 KFFC 010535
TAFMCN
TAF
KMCN 010535Z 0106/0206 13008KT P6SM SCT035
     FM010900 16004KT 4SM BR BKN015
     FM011100 18004KT 3SM BR OVC009
     FM011400 21006KT P6SM OVC012
     FM011600 22008KT P6SM VCSH BKN025
     FM012200 23009KT 4SM -TSRA BKN030CB=



000
FTUS42 KFFC 010535
TAFCSG
TAF
KCSG 010535Z 0106/0206 17005KT P6SM SCT035
     FM011000 16004KT P6SM BKN015
     FM011400 21006KT P6SM OVC025
     FM011600 22008KT P6SM VCSH BKN035
     FM012000 23009KT 4SM -TSRA BKN030CB=



000
FTUS42 KFFC 010535
TAFATL
TAF
KATL 010535Z 0106/0212 14006KT P6SM VCSH BKN040 BKN080
     FM011200 21006KT P6SM BKN015
     FM011600 23009KT P6SM VCSH BKN025
     FM011800 23010KT 4SM -TSRA BKN030CB
     FM012100 23008KT P6SM VCSH OVC040
     FM020200 24005KT P6SM SCT060 BKN250=



000
FTUS42 KFFC 010334 AAB
TAFATL
TAF AMD
KATL 010334Z 0104/0206 14005KT P6SM VCSH SCT060 BKN250
     FM011400 21006KT P6SM BKN015
     FM011600 23009KT P6SM VCSH BKN025
     FM011800 23010KT 4SM -TSRA BKN030CB
     FM012100 23008KT P6SM VCSH OVC040=



000
FTUS42 KFFC 010231 AAA
TAFAHN
TAF AMD
KAHN 010231Z 0103/0124 08008KT P6SM VCSH BKN050
      TEMPO 0103/0105 32012G22KT 3SM TSRA BKN040CB
     FM010600 13005KT P6SM OVC015
     FM010900 14004KT P6SM BKN009
     FM011400 21006KT P6SM VCSH BKN012
     FM012000 23009KT 4SM -TSRA BKN030CB=



000
FTUS42 KFFC 010149 AAA
TAFATL
TAF AMD
KATL 010149Z 0102/0206 14006KT P6SM VCSH SCT040 BKN200
     FM010400 17005KT P6SM SCT060 BKN250
     FM011400 21006KT P6SM BKN015
     FM011600 23009KT P6SM VCSH BKN025
     FM011800 23010KT 4SM -TSRA BKN030CB
     FM012100 23008KT P6SM VCSH OVC040=



000
FTUS42 KFFC 302321
TAFATL
TAF
KATL 302321Z 0100/0206 19008G16KT 6SM BR VCSH BKN050
      TEMPO 0100/0102 5SM -TSRA BR BKN050CB
     FM010400 17005KT P6SM SCT060 BKN250
     FM011400 21006KT P6SM BKN015
     FM011600 23009KT P6SM VCSH BKN025
     FM011800 23010KT 4SM -TSRA BKN030CB
     FM012100 23008KT P6SM VCSH OVC040=



000
FTUS42 KFFC 302321
TAFCSG
TAF
KCSG 302321Z 0100/0124 19010G18KT P6SM VCSH BKN050
     FM010400 17005KT P6SM SCT035
     FM011000 16004KT P6SM BKN015
     FM011400 21006KT P6SM OVC025
     FM011600 22008KT P6SM VCSH BKN035
     FM012000 23009KT 4SM -TSRA BKN030CB=



000
FTUS42 KFFC 302321
TAFAHN
TAF
KAHN 302321Z 0100/0124 08008KT P6SM VCSH BKN050
     FM010600 13005KT P6SM OVC015
     FM010900 14004KT P6SM BKN009
     FM011400 21006KT P6SM VCSH BKN012
     FM012000 23009KT 4SM -TSRA BKN030CB=



000
FTUS42 KFFC 302321
TAFFTY
TAF
KFTY 302321Z 0100/0124 19008KT 6SM BR VCSH BKN050
      TEMPO 0100/0102 5SM -TSRA BR BKN050CB
     FM010400 17003KT P6SM SCT060 BKN250
     FM011400 21004KT P6SM BKN015
     FM011600 23007KT P6SM VCSH BKN025
     FM011700 23009KT 4SM -TSRA BKN030CB
     FM012000 23006KT P6SM VCSH OVC040=



000
FTUS42 KFFC 302321
TAFPDK
TAF
KPDK 302321Z 0100/0124 19008KT 6SM BR VCSH BKN050
      TEMPO 0100/0102 5SM -TSRA BR BKN050CB
     FM010400 17003KT P6SM SCT060 BKN250
     FM011400 21004KT P6SM BKN015
     FM011600 23007KT P6SM VCSH BKN025
     FM011700 23009KT 4SM -TSRA BKN030CB
     FM012000 23006KT P6SM VCSH OVC040=



000
FTUS42 KFFC 302321
TAFMCN
TAF
KMCN 302321Z 0100/0124 13010KT P6SM VCSH BKN050
     FM010400 13008KT P6SM SCT035
     FM010800 16004KT 4SM BR BKN015
     FM011000 18004KT 3SM BR OVC009
     FM011400 21006KT P6SM OVC012
     FM011600 22008KT P6SM VCSH BKN025
     FM012200 23009KT 4SM -TSRA BKN030CB=



000
FTUS42 KFFC 302321
TAFRYY
TAF
KRYY 302321Z 0100/0124 19008KT 6SM BR VCSH BKN050
      TEMPO 0100/0102 5SM -TSRA BR BKN050CB
     FM010400 17003KT P6SM SCT060 BKN250
     FM011400 21004KT P6SM BKN015
     FM011600 23007KT P6SM VCSH BKN025
     FM011700 23009KT 4SM -TSRA BKN030CB
     FM012000 23006KT P6SM VCSH OVC040
      AMD NOT SKED 0104/0112=



000
FTUS42 KFFC 302259 AAA
TAFRYY
TAF AMD
KRYY 302259Z 3023/0118 18010G17KT P6SM VCSH BKN050
      TEMPO 3023/3024 VRB15G25KT 3SM TSRA BKN035CB
     FM010000 19005KT 5SM -TSRA BR BKN030CB
     FM010400 19005KT P6SM SCT060 BKN250
     FM010900 20004KT P6SM BKN015
     FM011400 23008KT P6SM VCSH BKN025=



000
FTUS42 KFFC 302259 AAA
TAFPDK
TAF AMD
KPDK 302259Z 3023/0118 19010G18KT P6SM VCSH BKN050
      TEMPO 3023/3024 VRB15G25KT 3SM TSRA BKN035CB
     FM010000 19005KT 5SM -TSRA BR BKN030CB
     FM010400 19005KT P6SM SCT060 BKN250
     FM010900 21004KT P6SM BKN015
     FM011400 23008KT P6SM VCSH BKN025=



000
FTUS42 KFFC 302259 AAA
TAFRYY
TAF AMD
KRYY 302259Z 3023/0118 18010G17KT P6SM VCSH BKN050
      TEMPO 3023/3024 VRB15G25KT 3SM TSRA BKN035CB
     FM010000 19005KT 5SM -TSRA BR BKN030CB
     FM010400 19005KT P6SM SCT060 BKN250
     FM010900 20004KT P6SM BKN015
     FM011400 23008KT P6SM VCSH BKN025=



000
FTUS42 KFFC 302259 AAA
TAFFTY
TAF AMD
KFTY 302259Z 3023/0118 18010G18KT P6SM VCSH BKN050
      TEMPO 3023/3024 VRB15G25KT 3SM TSRA BKN035CB
     FM010000 18006KT 5SM -TSRA BR BKN030CB
     FM010400 18005KT P6SM SCT060 BKN250
     FM010900 21004KT P6SM BKN015
     FM011400 23008KT P6SM VCSH BKN025=



000
FTUS42 KFFC 302259 AAA
TAFPDK
TAF AMD
KPDK 302259Z 3023/0118 19010G18KT P6SM VCSH BKN050
      TEMPO 3023/3024 VRB15G25KT 3SM TSRA BKN035CB
     FM010000 19005KT 5SM -TSRA BR BKN030CB
     FM010400 19005KT P6SM SCT060 BKN250
     FM010900 21004KT P6SM BKN015
     FM011400 23008KT P6SM VCSH BKN025=



000
FTUS42 KFFC 302142 AAB
TAFATL
TAF AMD
KATL 302142Z 3022/0124 17012G20KT P6SM VCSH BKN050
      TEMPO 3022/3023 VRB20G30KT 3SM TSRA BKN040CB
     FM010000 17008KT 5SM -TSRA BR BKN030CB
     FM010400 17005KT P6SM SCT060 BKN250
     FM010900 21006KT P6SM BKN015
     FM011400 23009KT P6SM VCSH BKN025
     FM011700 23010KT 6SM -SHRA BKN035 PROB30 0118/0122 3SM TSRA BR
      BKN025CB=



000
FTUS42 KFFC 301946 AAA
TAFATL
TAF AMD
KATL 301946Z 3020/0124 17012G20KT P6SM VCSH BKN050
     FM010000 17008KT 5SM -TSRA BR BKN030CB
     FM010400 17005KT P6SM SCT060 BKN250
     FM010900 21006KT P6SM BKN015
     FM011400 23009KT P6SM VCSH BKN025
     FM011700 23010KT 6SM -SHRA BKN035 PROB30 0118/0122 3SM TSRA BR
      BKN025CB=



000
FTUS42 KFFC 301946 AAA
TAFATL
TAF AMD
KATL 301946Z 3020/0124 17012G20KT P6SM VCSH BKN050
     FM010000 17008KT 5SM -TSRA BR BKN030CB
     FM010400 17005KT P6SM SCT060 BKN250
     FM010900 21006KT P6SM BKN015
     FM011400 23009KT P6SM VCSH BKN025
     FM011700 23010KT 6SM -SHRA BKN035 PROB30 0118/0122 3SM TSRA BR
      BKN025CB=



000
FTUS42 KFFC 301734
TAFMCN
TAF
KMCN 301734Z 3018/0118 18010G18KT P6SM VCSH BKN050
      TEMPO 3018/3021 3SM TSRA BKN035CB
     FM010400 17005KT P6SM SCT035
     FM010800 18004KT 4SM BR BKN015
     FM011000 18004KT 3SM BR OVC009
     FM011400 21006KT P6SM OVC012
     FM011600 22008KT P6SM VCSH BKN025=



000
FTUS42 KFFC 301734
TAFCSG
TAF
KCSG 301734Z 3018/0118 18010G18KT P6SM VCSH BKN050
     FM010400 17005KT P6SM SCT035
     FM011000 20004KT P6SM BKN015
     FM011400 21006KT P6SM OVC025
     FM011600 22008KT P6SM VCSH BKN035=



000
FTUS42 KFFC 301734
TAFPDK
TAF
KPDK 301734Z 3018/0118 19010G18KT P6SM VCSH BKN050
      TEMPO 3018/3020 3SM TSRA BKN035CB
     FM010000 19005KT 5SM -TSRA BR BKN030CB
     FM010400 19005KT P6SM SCT060 BKN250
     FM010900 21004KT P6SM BKN015
     FM011400 23008KT P6SM VCSH BKN025=



000
FTUS42 KFFC 301734
TAFRYY
TAF
KRYY 301734Z 3018/0118 18010G17KT P6SM VCSH BKN050
      TEMPO 3018/3019 3SM -TSRA BR BKN025CB
     FM010000 19005KT 5SM -TSRA BR BKN030CB
     FM010400 19005KT P6SM SCT060 BKN250
     FM010900 20004KT P6SM BKN015
     FM011400 23008KT P6SM VCSH BKN025=



000
FTUS42 KFFC 301734
TAFATL
TAF
KATL 301734Z 3018/0124 20012G20KT P6SM VCSH BKN050
      TEMPO 3018/3020 3SM TSRA BR BKN035CB
     FM302000 17012G20KT P6SM VCSH BKN050
     FM010000 17008KT 5SM -TSRA BR BKN030CB
     FM010400 17005KT P6SM SCT060 BKN250
     FM010900 21006KT P6SM BKN015
     FM011400 23009KT P6SM VCSH BKN025
     FM011700 23010KT 6SM -SHRA BKN035 PROB30 0118/0122 3SM TSRA BR
      BKN025CB=



000
FTUS42 KFFC 301734
TAFAHN
TAF
KAHN 301734Z 3018/0118 18008KT P6SM VCSH BKN050
      TEMPO 3018/3022 3SM TSRA BR BKN035CB
     FM010200 18005KT 5SM -TSRA BR BKN030CB
     FM010600 17005KT P6SM SCT012 SCT050
     FM010900 17004KT P6SM BKN009
     FM011400 21006KT P6SM VCSH BKN012=



000
FTUS42 KFFC 301734
TAFFTY
TAF
KFTY 301734Z 3018/0118 18010G18KT P6SM VCSH BKN050
      TEMPO 3018/3020 3SM TSRA BKN035CB
     FM010000 18006KT 5SM -TSRA BR BKN030CB
     FM010400 18005KT P6SM SCT060 BKN250
     FM010900 21004KT P6SM BKN015
     FM011400 23008KT P6SM VCSH BKN025=



000
FTUS42 KFFC 301601 AAA
TAFRYY
TAF AMD
KRYY 301601Z 3016/0112 17006KT P6SM SCT050
     FM301800 17010KT P6SM VCSH BKN050
     FM010000 17006KT 5SM -TSRA BR BKN030CB
     FM010400 17004KT P6SM SCT060 BKN250
     FM010900 23004KT P6SM BKN020=



000
FTUS42 KFFC 301601 AAA
TAFPDK
TAF AMD
KPDK 301601Z 3016/0112 20009KT P6SM SCT050
     FM301800 17010KT P6SM VCSH BKN050
     FM010000 17006KT 5SM -TSRA BR BKN030CB
     FM010400 17004KT P6SM SCT060 BKN250
     FM010900 23004KT P6SM BKN020=



000
FTUS42 KFFC 301600 AAB
TAFATL
TAF AMD
KATL 301600Z 3016/0118 17008KT P6SM SCT050
     FM301800 17010KT P6SM VCSH BKN050
     FM010000 17008KT 5SM -TSRA BR BKN030CB
     FM010400 17005KT P6SM SCT060 BKN250
     FM010900 23006KT P6SM BKN020=



000
FTUS42 KFFC 301600 AAA
TAFFTY
TAF AMD
KFTY 301600Z 3016/0112 17009KT P6SM SCT050
     FM301800 17010KT P6SM VCSH BKN050
     FM010000 17006KT 5SM -TSRA BR BKN030CB
     FM010400 17004KT P6SM SCT060 BKN250
     FM010900 23004KT P6SM BKN020=



000
FTUS42 KFFC 301349 AAA
TAFATL
TAF AMD
KATL 301349Z 3014/0118 09005KT P6SM SCT070 BKN250
     FM301500 14006KT P6SM SCT035 BKN250
     FM301800 17010KT P6SM VCSH BKN050 PROB30 3023/0103 4SM TSRA
      BKN030CB
     FM010300 17005KT P6SM SCT060 BKN250
     FM010900 23006KT P6SM BKN020=



    US Dept of Commerce
    National Oceanic and Atmospheric Administration
    National Weather Service
    1325 East West Highway
    Silver Spring, MD 20910
    Page Author: NWS Internet Services Team
Disclaimer
Information Quality
Credits
Glossary
Privacy Policy
Freedom of Information Act (FOIA)
About Us
Career Opportunities